Time;durP1;ratioP1;P1;durP2;ratioP2;P2;SDS_P1;SDS_P2;PMS_P1;PMS_P2;Temp;Humidity;BMP_temperature;BMP_pressure;BME280_temperature;BME280_humidity;BME280_pressure;Samples;Min_cycle;Max_cycle;Signal;HPM_P1;HPM_P2
2022/05/22 12:29:48;;;;;;;5.95;2.25;;;19.10;1.00;;;;;;6190493;23;20071;-93
2022/05/22 15:52:43;;;;;;;6.15;1.20;;;24.40;1.00;;;;;;6129778;23;20045;-88
2022/05/22 15:55:39;;;;;;;5.75;1.25;;;24.40;1.00;;;;;;6156081;23;20400;-89
2022/05/22 15:58:10;;;;;;;4.85;1.50;;;23.80;1.00;;;;;;6132853;23;20319;-86
2022/05/22 16:00:47;;;;;;;2.28;0.88;;;24.00;1.00;;;;;;6131997;23;20021;-89
2022/05/22 16:03:23;;;;;;;2.30;0.85;;;24.10;1.00;;;;;;6158426;23;20441;-89
2022/05/22 16:05:50;;;;;;;6.40;1.30;;;24.40;1.00;;;;;;6157904;23;20092;-87
2022/05/22 16:08:17;;;;;;;3.97;1.05;;;24.40;1.00;;;;;;6083960;23;20327;-87
2022/05/22 16:10:45;;;;;;;4.43;0.80;;;24.60;1.00;;;;;;6131506;23;20322;-86
2022/05/22 16:13:12;;;;;;;3.70;0.95;;;24.80;1.00;;;;;;6132025;23;20429;-86
2022/05/22 16:15:39;;;;;;;7.53;1.38;;;25.00;1.00;;;;;;6107472;23;20052;-86
2022/05/22 16:18:07;;;;;;;3.88;0.93;;;25.10;1.00;;;;;;6157533;23;20013;-86
2022/05/22 16:20:35;;;;;;;3.20;0.80;;;25.10;1.00;;;;;;6131987;23;20017;-88
2022/05/22 16:23:07;;;;;;;2.42;0.80;;;25.20;1.00;;;;;;6108280;23;20044;-89
2022/05/22 16:25:40;;;;;;;3.08;1.20;;;25.20;1.00;;;;;;6136340;23;20024;-88
2022/05/22 16:28:13;;;;;;;3.63;1.20;;;25.40;1.00;;;;;;6111865;23;20076;-89
2022/05/22 16:30:40;;;;;;;3.75;1.48;;;25.50;1.00;;;;;;6157932;23;20017;-86
2022/05/22 16:33:09;;;;;;;2.70;1.05;;;25.60;1.00;;;;;;6131316;23;20022;-86
2022/05/22 16:35:43;;;;;;;1.33;0.80;;;25.60;1.00;;;;;;6158058;23;20021;-88
2022/05/22 16:38:11;;;;;;;3.78;1.38;;;25.60;1.00;;;;;;6158648;23;20037;-87
2022/05/22 16:40:41;;;;;;;6.43;1.45;;;25.70;1.00;;;;;;6132424;23;20014;-86
2022/05/22 16:43:28;;;;;;;2.15;1.05;;;25.60;1.00;;;;;;6136090;23;20018;-84
2022/05/22 16:46:02;;;;;;;4.22;1.00;;;25.50;1.00;;;;;;6110320;23;20076;-85
2022/05/22 16:54:02;;;;;;;2.30;0.60;;;24.90;1.00;;;;;;6131396;23;20021;-88
2022/05/22 16:56:32;;;;;;;3.40;0.82;;;24.80;1.00;;;;;;6108650;23;20022;-88
2022/05/22 16:58:59;;;;;;;2.90;1.02;;;24.70;1.00;;;;;;6157246;23;20512;-86
2022/05/22 17:01:26;;;;;;;2.50;1.00;;;24.60;1.00;;;;;;6157736;23;20017;-87
2022/05/22 17:03:53;;;;;;;4.93;1.38;;;24.50;1.00;;;;;;6132007;23;20018;-85
2022/05/22 17:06:23;;;;;;;3.20;1.50;;;24.40;1.00;;;;;;6157241;23;20025;-89
2022/05/22 17:08:58;;;;;;;5.45;1.58;;;24.30;1.00;;;;;;6130550;23;20048;-85
2022/05/22 17:11:26;;;;;;;3.97;1.20;;;24.20;1.00;;;;;;6156888;23;20014;-88
2022/05/22 17:14:34;;;;;;;4.07;1.40;;;24.20;1.00;;;;;;6156688;23;20013;-84
2022/05/22 17:17:05;;;;;;;3.33;0.90;;;24.10;1.00;;;;;;6156926;23;20020;-85
2022/05/22 17:19:33;;;;;;;3.53;1.40;;;24.10;1.00;;;;;;6130910;23;20020;-84
2022/05/22 17:22:13;;;;;;;3.17;0.80;;;24.00;1.00;;;;;;6130445;23;20021;-83
2022/05/22 17:24:57;;;;;;;1.58;0.90;;;23.90;1.00;;;;;;6131502;23;20017;-85
2022/05/22 17:27:49;;;;;;;1.48;0.93;;;23.80;1.00;;;;;;6157530;23;20101;-84
2022/05/22 17:30:26;;;;;;;5.18;1.30;;;23.80;1.00;;;;;;6149692;23;20401;-84
2022/05/22 17:32:56;;;;;;;3.47;1.27;;;23.50;1.00;;;;;;6130467;23;20092;-86
2022/05/22 17:35:26;;;;;;;4.88;2.08;;;23.40;1.00;;;;;;6156389;23;20028;-85
2022/05/22 17:37:56;;;;;;;3.13;1.00;;;22.90;1.00;;;;;;6106627;23;20024;-88
2022/05/22 17:40:26;;;;;;;2.47;1.40;;;23.00;1.00;;;;;;6157238;23;20022;-87
2022/05/22 17:42:53;;;;;;;2.22;1.00;;;23.00;1.00;;;;;;6130921;23;20026;-86
2022/05/22 18:39:17;;;;;;;2.67;1.05;;;21.70;1.00;;;;;;6165071;23;20108;-90
2022/05/22 19:08:03;;;;;;;1.75;0.75;;;21.50;1.00;;;;;;6130756;23;20155;-92
